createdAt,value
2018-11-23T00:00:33.380Z,50.45
2018-11-23T00:03:07.650Z,51.05
2018-11-23T00:05:42.080Z,51.42
2018-11-23T00:08:16.422Z,52.53
2018-11-23T00:10:50.589Z,53.52
2018-11-23T00:13:25.898Z,50.00
2018-11-23T00:16:00.341Z,50.90
2018-11-23T00:18:34.633Z,52.10
2018-11-23T00:21:08.968Z,48.95
2018-11-23T00:23:43.391Z,53.68
2018-11-23T00:26:17.580Z,52.93
2018-11-23T00:28:51.801Z,50.23
2018-11-23T00:31:26.286Z,52.00
2018-11-23T00:34:00.604Z,49.42
2018-11-23T00:36:34.917Z,52.38
2018-11-23T00:39:09.070Z,48.68
2018-11-23T00:41:43.397Z,55.40
2018-11-23T00:44:17.602Z,48.33
2018-11-23T00:46:51.984Z,47.30
2018-11-23T00:49:26.290Z,50.12
2018-11-23T00:52:00.478Z,51.30
2018-11-23T00:54:34.874Z,48.95
2018-11-23T00:57:09.240Z,48.23
2018-11-23T00:59:43.678Z,48.85
2018-11-23T01:02:17.824Z,48.38
2018-11-23T01:04:52.152Z,48.90
2018-11-23T01:07:26.564Z,50.90
2018-11-23T01:10:00.737Z,48.02
2018-11-23T01:12:35.087Z,49.18
2018-11-23T01:15:10.051Z,51.15
2018-11-23T01:17:44.367Z,46.73
2018-11-23T01:20:21.033Z,46.60
2018-11-23T01:22:56.086Z,45.92
2018-11-23T01:25:30.245Z,48.17
2018-11-23T01:28:04.553Z,48.17
2018-11-23T01:30:38.826Z,46.45
2018-11-23T01:33:13.170Z,48.63
2018-11-23T01:35:47.478Z,47.95
2018-11-23T01:38:21.933Z,54.58
2018-11-23T01:40:56.204Z,48.78
2018-11-23T01:43:30.404Z,53.30
2018-11-23T01:46:04.642Z,50.43
2018-11-23T01:48:38.921Z,49.27
2018-11-23T01:51:13.213Z,52.25
2018-11-23T01:53:47.448Z,52.58
2018-11-23T01:56:21.802Z,54.08
2018-11-23T01:58:56.309Z,51.42
2018-11-23T02:01:30.598Z,48.35
2018-11-23T02:04:05.101Z,51.58
2018-11-23T02:06:39.357Z,53.85
2018-11-23T02:09:13.795Z,50.63
2018-11-23T02:11:48.019Z,54.65
2018-11-23T02:14:22.394Z,51.28
2018-11-23T02:16:56.542Z,51.10
2018-11-23T02:19:30.806Z,54.27
2018-11-23T02:22:05.151Z,57.58
2018-11-23T02:24:39.369Z,54.55
2018-11-23T02:27:13.679Z,49.98
2018-11-23T02:29:48.050Z,52.55
2018-11-23T02:32:22.281Z,51.60
2018-11-23T02:34:56.547Z,51.28
2018-11-23T02:37:30.872Z,50.50
2018-11-23T02:40:05.438Z,54.48
2018-11-23T02:42:39.710Z,50.70
2018-11-23T02:45:16.001Z,53.23
2018-11-23T02:47:50.449Z,51.73
2018-11-23T02:50:24.819Z,54.50
2018-11-23T02:52:59.126Z,53.70
2018-11-23T02:55:33.457Z,54.70
2018-11-23T02:58:07.856Z,56.33
2018-11-23T03:00:42.236Z,55.88
2018-11-23T03:03:16.494Z,55.20
2018-11-23T03:05:50.649Z,58.28
2018-11-23T03:08:24.894Z,58.00
2018-11-23T03:10:59.185Z,51.20
2018-11-23T03:13:33.472Z,56.53
2018-11-23T03:16:07.782Z,52.10
2018-11-23T03:18:42.162Z,57.80
2018-11-23T03:21:16.460Z,54.67
2018-11-23T03:23:51.247Z,54.50
2018-11-23T03:26:25.720Z,59.35
2018-11-23T03:29:00.072Z,55.43
2018-11-23T03:31:34.262Z,54.45
2018-11-23T03:34:08.573Z,55.70
2018-11-23T03:36:44.078Z,52.53
2018-11-23T03:39:18.346Z,52.90
2018-11-23T03:41:52.637Z,54.80
2018-11-23T03:44:27.039Z,56.13
2018-11-23T03:47:01.438Z,55.60
2018-11-23T03:49:35.706Z,57.75
2018-11-23T03:52:10.097Z,54.10
2018-11-23T03:54:44.354Z,52.62
2018-11-23T03:57:18.820Z,54.40
2018-11-23T03:59:53.187Z,55.48
2018-11-23T04:02:27.588Z,54.05
2018-11-23T04:05:02.017Z,50.75
2018-11-23T04:07:36.376Z,53.40
2018-11-23T04:10:12.108Z,53.13
2018-11-23T04:12:47.049Z,56.92
2018-11-23T04:15:21.338Z,50.28
2018-11-23T04:17:55.648Z,56.02
2018-11-23T04:20:29.982Z,52.35
2018-11-23T04:23:04.273Z,51.68
2018-11-23T04:25:38.538Z,53.38
2018-11-23T04:28:12.802Z,51.00
2018-11-23T04:30:46.998Z,50.67
2018-11-23T04:33:21.263Z,51.45
2018-11-23T04:35:56.209Z,52.33
2018-11-23T04:38:30.606Z,54.95
2018-11-23T04:41:04.882Z,51.15
2018-11-23T04:43:39.195Z,48.65
2018-11-23T04:46:13.574Z,49.10
2018-11-23T04:48:48.053Z,54.03
2018-11-23T04:51:22.527Z,54.53
2018-11-23T04:53:56.734Z,51.50
2018-11-23T04:56:31.166Z,46.10
2018-11-23T04:59:05.958Z,54.42
2018-11-23T05:01:40.174Z,53.05
2018-11-23T05:04:14.508Z,53.68
2018-11-23T05:06:48.823Z,51.35
2018-11-23T05:09:23.075Z,50.35
2018-11-23T05:11:57.471Z,52.88
2018-11-23T05:14:33.433Z,53.58
2018-11-23T05:17:07.683Z,51.55
2018-11-23T05:19:42.263Z,51.37
2018-11-23T05:22:16.637Z,52.60
2018-11-23T05:24:51.147Z,54.40
2018-11-23T05:27:25.514Z,51.63
2018-11-23T05:29:59.887Z,50.08
2018-11-23T05:32:34.083Z,54.20
2018-11-23T05:35:09.975Z,51.48
2018-11-23T05:37:44.160Z,49.77
2018-11-23T05:40:19.814Z,54.48
2018-11-23T05:42:54.096Z,54.93
2018-11-23T05:45:28.607Z,55.40
2018-11-23T05:48:03.021Z,51.10
2018-11-23T05:50:37.174Z,52.48
2018-11-23T05:53:12.528Z,55.65
2018-11-23T05:55:47.342Z,52.88
2018-11-23T05:58:21.850Z,55.78
2018-11-23T06:00:56.174Z,49.70
2018-11-23T06:03:30.581Z,50.65
2018-11-23T06:06:04.849Z,50.03
2018-11-23T06:08:39.224Z,53.68
2018-11-23T06:11:14.608Z,49.35
2018-11-23T06:13:49.020Z,52.40
2018-11-23T06:16:23.214Z,49.30
2018-11-23T06:18:57.579Z,50.58
2018-11-23T06:21:31.730Z,51.23
2018-11-23T06:24:06.209Z,51.00
2018-11-23T06:26:40.526Z,49.88
2018-11-23T06:29:14.745Z,51.90
2018-11-23T06:31:49.082Z,52.70
2018-11-23T06:34:23.274Z,49.45
2018-11-23T06:36:57.666Z,50.03
2018-11-23T06:39:31.964Z,57.73
2018-11-23T06:42:06.408Z,50.48
2018-11-23T06:44:40.738Z,50.48
2018-11-23T06:47:15.028Z,48.45
2018-11-23T06:49:56.300Z,52.73
2018-11-23T06:52:30.529Z,48.08
2018-11-23T06:55:05.919Z,51.05
2018-11-23T06:57:41.496Z,49.23
2018-11-23T07:00:16.511Z,53.13
2018-11-23T07:02:50.781Z,49.42
2018-11-23T07:05:25.238Z,48.98
2018-11-23T07:07:59.629Z,50.67
2018-11-23T07:10:34.166Z,49.48
2018-11-23T07:13:08.863Z,49.42
2018-11-23T07:15:43.437Z,58.70
2018-11-23T07:18:17.796Z,48.50
2018-11-23T07:20:52.216Z,51.53
2018-11-23T07:23:26.474Z,51.53
2018-11-23T07:26:00.792Z,49.85
2018-11-23T07:28:35.015Z,49.88
2018-11-23T07:31:09.492Z,46.95
2018-11-23T07:33:44.016Z,48.65
2018-11-23T07:36:18.476Z,48.15
2018-11-23T07:38:52.917Z,44.00
2018-11-23T07:41:38.581Z,47.62
2018-11-23T07:44:13.145Z,48.02
2018-11-23T07:46:47.442Z,45.63
2018-11-23T07:49:21.876Z,45.45
2018-11-23T07:51:56.266Z,46.15
2018-11-23T07:54:30.822Z,46.92
2018-11-23T07:57:05.371Z,45.30
2018-11-23T07:59:39.648Z,45.75
2018-11-23T08:02:14.347Z,45.17
2018-11-23T08:04:48.593Z,46.05
2018-11-23T08:07:22.921Z,44.25
2018-11-23T08:09:56.680Z,44.85
2018-11-23T08:12:31.024Z,44.00
2018-11-23T08:15:09.754Z,47.13
2018-11-23T08:17:44.268Z,47.03
2018-11-23T08:20:19.656Z,43.65
2018-11-23T08:22:54.100Z,46.73
2018-11-23T08:25:29.242Z,43.48
2018-11-23T08:28:03.609Z,42.60
2018-11-23T08:30:38.074Z,46.58
2018-11-23T08:33:12.513Z,43.83
2018-11-23T08:35:48.249Z,42.80
2018-11-23T08:38:22.680Z,38.17
2018-11-23T08:40:57.551Z,40.30
2018-11-23T08:43:31.861Z,40.52
2018-11-23T08:46:07.270Z,42.83
2018-11-23T08:48:42.610Z,40.88
2018-11-23T08:51:17.035Z,43.42
2018-11-23T08:53:51.252Z,41.83
2018-11-23T08:56:25.569Z,44.25
2018-11-23T08:59:00.318Z,42.67
2018-11-23T09:01:34.732Z,40.58
2018-11-23T09:04:09.152Z,43.30
2018-11-23T09:06:43.359Z,42.83
2018-11-23T09:09:17.761Z,39.30
2018-11-23T09:11:52.292Z,39.08
2018-11-23T09:14:27.345Z,41.58
2018-11-23T09:17:02.676Z,41.20
2018-11-23T09:19:38.646Z,39.78
2018-11-23T09:22:13.030Z,42.25
2018-11-23T09:24:47.421Z,39.25
2018-11-23T09:27:22.609Z,37.75
2018-11-23T09:29:56.909Z,38.25
2018-11-23T09:32:32.323Z,39.95
2018-11-23T09:37:49.793Z,39.78
2018-11-23T09:40:25.479Z,36.77
2018-11-23T09:43:00.855Z,36.08
2018-11-23T09:45:36.449Z,39.60
2018-11-23T09:48:10.974Z,35.88
2018-11-23T09:50:45.798Z,33.85
2018-11-23T09:53:20.730Z,33.30
2018-11-23T09:55:57.378Z,35.80
2018-11-23T09:58:31.670Z,37.20
2018-11-23T10:03:41.126Z,36.45
2018-11-23T10:06:15.372Z,32.93
2018-11-23T10:08:49.884Z,38.10
2018-11-23T10:11:24.852Z,34.98
2018-11-23T10:13:59.120Z,38.08
2018-11-23T10:16:33.366Z,34.30
2018-11-23T10:19:11.014Z,35.60
2018-11-23T10:21:45.397Z,37.23
2018-11-23T10:24:19.618Z,37.23
2018-11-23T10:26:54.695Z,34.55
2018-11-23T10:29:29.004Z,34.65
2018-11-23T10:32:03.516Z,37.30
2018-11-23T10:34:37.841Z,34.53
2018-11-23T10:37:12.013Z,37.00
2018-11-23T10:39:47.418Z,30.17
2018-11-23T10:42:22.094Z,34.88
2018-11-23T10:44:56.405Z,35.10
2018-11-23T10:47:31.125Z,32.60
2018-11-23T10:50:07.886Z,30.60
2018-11-23T10:52:42.599Z,33.65
2018-11-23T10:55:20.306Z,32.08
2018-11-23T10:57:55.527Z,33.48
2018-11-23T11:00:35.738Z,31.07
2018-11-23T11:03:15.324Z,32.15
2018-11-23T11:05:56.441Z,33.63
2018-11-23T11:08:30.734Z,31.37
2018-11-23T11:11:05.423Z,32.20
2018-11-23T11:13:39.909Z,31.33
2018-11-23T11:16:14.608Z,30.43
2018-11-23T11:18:49.489Z,32.65
2018-11-23T11:21:23.799Z,30.72
2018-11-23T11:23:58.312Z,32.03
2018-11-23T11:26:32.557Z,28.57
2018-11-23T11:29:06.917Z,31.50
2018-11-23T11:31:41.530Z,31.25
2018-11-23T11:34:15.891Z,29.67
2018-11-23T11:36:50.318Z,31.77
2018-11-23T11:39:24.829Z,29.12
2018-11-23T11:41:59.257Z,32.75
2018-11-23T11:44:33.754Z,31.02
2018-11-23T11:47:08.020Z,27.37
2018-11-23T11:49:42.318Z,29.57
2018-11-23T11:52:16.864Z,28.50
2018-11-23T11:54:51.284Z,31.12
2018-11-23T11:57:25.627Z,30.50
2018-11-23T11:59:59.908Z,30.17
2018-11-23T12:02:34.415Z,33.98
2018-11-23T12:05:10.243Z,30.95
2018-11-23T12:07:44.833Z,30.60
2018-11-23T12:10:20.639Z,31.02
2018-11-23T12:12:55.030Z,29.80
2018-11-23T12:15:29.379Z,32.90
2018-11-23T12:18:03.710Z,31.55
2018-11-23T12:20:38.343Z,30.37
2018-11-23T12:23:12.762Z,33.33
2018-11-23T12:25:47.245Z,32.03
2018-11-23T12:28:21.750Z,32.17
2018-11-23T12:30:57.216Z,31.97
2018-11-23T12:33:31.561Z,33.85
2018-11-23T12:36:06.070Z,30.00
2018-11-23T12:38:43.003Z,31.80
2018-11-23T12:41:14.909Z,31.20
2018-11-23T12:43:49.121Z,31.68
2018-11-23T12:46:23.498Z,30.00
2018-11-23T12:48:57.724Z,30.23
2018-11-23T12:51:32.002Z,32.85
2018-11-23T12:54:06.705Z,31.75
2018-11-23T12:56:41.381Z,29.35
2018-11-23T12:59:16.221Z,31.97
2018-11-23T13:01:50.500Z,33.78
2018-11-23T13:04:24.801Z,34.08
2018-11-23T13:06:59.037Z,30.55
2018-11-23T13:09:33.354Z,30.65
2018-11-23T13:12:07.666Z,30.52
2018-11-23T13:14:41.962Z,31.27
2018-11-23T13:17:16.376Z,30.88
2018-11-23T13:19:50.836Z,30.75
2018-11-23T13:22:25.328Z,30.25
2018-11-23T13:24:59.852Z,29.82
2018-11-23T13:27:34.280Z,29.25
2018-11-23T13:30:13.123Z,28.17
2018-11-23T13:32:47.585Z,32.50
2018-11-23T13:35:21.918Z,32.05
2018-11-23T13:37:56.234Z,30.20
2018-11-23T13:40:31.026Z,27.95
2018-11-23T13:43:05.419Z,29.15
2018-11-23T13:45:39.778Z,30.88
2018-11-23T13:48:19.883Z,28.70
2018-11-23T13:50:48.506Z,29.60
2018-11-23T13:53:22.786Z,29.20
2018-11-23T13:55:57.953Z,31.37
2018-11-23T13:58:32.666Z,29.50
2018-11-23T14:01:07.221Z,29.98
2018-11-23T14:03:47.444Z,29.80
2018-11-23T14:06:21.922Z,29.67
2018-11-23T14:08:56.559Z,30.12
2018-11-23T14:11:30.859Z,31.33
2018-11-23T14:14:05.216Z,30.40
2018-11-23T14:16:40.175Z,29.25
2018-11-23T14:19:14.771Z,28.30
2018-11-23T14:21:49.658Z,27.05
2018-11-23T14:24:24.076Z,27.82
2018-11-23T14:26:58.365Z,29.65
2018-11-23T14:29:32.670Z,31.23
2018-11-23T14:32:07.150Z,28.27
2018-11-23T14:34:41.438Z,29.57
2018-11-23T14:37:15.702Z,28.27
2018-11-23T14:39:50.096Z,30.05
2018-11-23T14:42:24.442Z,28.30
2018-11-23T14:44:58.887Z,29.23
2018-11-23T14:47:33.211Z,32.33
2018-11-23T14:50:10.312Z,30.50
2018-11-23T14:52:45.554Z,29.65
2018-11-23T14:55:20.093Z,28.47
2018-11-23T14:57:54.741Z,28.52
2018-11-23T15:00:30.803Z,30.20
2018-11-23T15:03:05.955Z,31.42
2018-11-23T15:05:40.390Z,29.50
2018-11-23T15:08:14.857Z,29.25
2018-11-23T15:10:50.200Z,29.30
2018-11-23T15:13:24.646Z,30.15
2018-11-23T15:15:59.165Z,30.25
2018-11-23T15:18:33.486Z,30.75
2018-11-23T15:21:07.803Z,31.82
2018-11-23T15:23:42.305Z,30.52
2018-11-23T15:26:16.661Z,33.00
2018-11-23T15:28:51.134Z,28.45
2018-11-23T15:31:25.608Z,29.40
2018-11-23T15:34:00.157Z,29.63
2018-11-23T15:36:34.513Z,30.75
2018-11-23T15:39:10.573Z,28.60
2018-11-23T15:41:44.946Z,29.05
2018-11-23T15:44:19.265Z,32.45
2018-11-23T15:46:53.670Z,31.23
2018-11-23T15:49:28.070Z,31.90
2018-11-23T15:52:02.445Z,30.40
2018-11-23T15:54:36.823Z,30.70
2018-11-23T15:57:11.377Z,29.50
2018-11-23T15:59:46.520Z,31.52
2018-11-23T16:02:21.014Z,33.08
2018-11-23T16:04:55.354Z,34.67
2018-11-23T16:07:29.729Z,29.67
2018-11-23T16:10:06.599Z,30.55
2018-11-23T16:12:40.944Z,33.30
2018-11-23T16:15:15.289Z,31.20
2018-11-23T16:17:50.103Z,33.00
2018-11-23T16:20:27.859Z,32.28
2018-11-23T16:23:03.610Z,32.35
2018-11-23T16:25:38.250Z,31.00
2018-11-23T16:28:12.859Z,31.00
2018-11-23T16:30:48.813Z,30.80
2018-11-23T16:33:24.750Z,32.00
2018-11-23T16:36:03.426Z,31.42
2018-11-23T16:38:37.721Z,33.13
2018-11-23T16:41:12.025Z,34.50
2018-11-23T16:43:46.368Z,33.63
2018-11-23T16:46:20.623Z,35.13
2018-11-23T16:48:54.914Z,34.75
2018-11-23T16:51:29.291Z,32.40
2018-11-23T16:54:03.704Z,33.48
2018-11-23T16:56:41.623Z,34.60
2018-11-23T16:59:16.385Z,37.78
2018-11-23T17:01:50.729Z,35.75
2018-11-23T17:04:24.966Z,33.90
2018-11-23T17:06:59.253Z,36.17
2018-11-23T17:09:34.362Z,34.33
2018-11-23T17:12:08.914Z,37.05
2018-11-23T17:14:43.128Z,36.83
2018-11-23T17:17:17.505Z,33.75
2018-11-23T17:19:51.745Z,36.63
2018-11-23T17:22:26.369Z,38.33
2018-11-23T17:25:00.710Z,37.60
2018-11-23T17:27:35.072Z,37.25
2018-11-23T17:30:13.705Z,38.17
2018-11-23T17:32:48.171Z,37.50
2018-11-23T17:35:22.562Z,34.78
2018-11-23T17:37:57.213Z,38.88
2018-11-23T17:40:33.333Z,37.10
2018-11-23T17:43:09.295Z,34.27
2018-11-23T17:45:43.641Z,36.75
2018-11-23T17:48:18.065Z,36.38
2018-11-23T17:50:52.495Z,38.85
2018-11-23T17:53:26.811Z,35.65
2018-11-23T17:56:01.126Z,36.08
2018-11-23T17:58:35.355Z,40.05
2018-11-23T18:01:10.226Z,38.35
2018-11-23T18:03:44.719Z,38.58
2018-11-23T18:06:18.873Z,36.53
2018-11-23T18:08:53.419Z,37.45
2018-11-23T18:11:27.677Z,38.28
2018-11-23T18:14:02.077Z,39.58
2018-11-23T18:16:36.282Z,36.42
2018-11-23T18:19:10.743Z,40.38
2018-11-23T18:21:47.274Z,36.88
2018-11-23T18:24:21.601Z,34.53
2018-11-23T18:26:56.119Z,37.08
2018-11-23T18:29:30.456Z,38.48
2018-11-23T18:32:04.758Z,39.73
2018-11-23T18:34:39.191Z,38.50
2018-11-23T18:37:13.485Z,36.42
2018-11-23T18:39:47.910Z,36.63
2018-11-23T18:42:22.197Z,39.60
2018-11-23T18:44:56.515Z,40.73
2018-11-23T18:47:30.770Z,40.80
2018-11-23T18:50:07.494Z,37.45
2018-11-23T18:52:41.679Z,39.48
2018-11-23T18:55:18.149Z,41.45
2018-11-23T18:57:50.419Z,40.63
2018-11-23T19:00:24.795Z,43.75
2018-11-23T19:02:59.246Z,42.53
2018-11-23T19:05:35.411Z,42.55
2018-11-23T19:08:10.928Z,41.60
2018-11-23T19:10:45.168Z,37.93
2018-11-23T19:13:19.587Z,37.23
2018-11-23T19:15:53.954Z,38.15
2018-11-23T19:18:28.277Z,42.05
2018-11-23T19:21:02.505Z,42.73
2018-11-23T19:23:36.873Z,42.38
2018-11-23T19:26:11.254Z,46.00
2018-11-23T19:28:45.585Z,46.33
2018-11-23T19:31:20.049Z,45.33
2018-11-23T19:33:59.094Z,40.65
2018-11-23T19:36:28.837Z,43.15
2018-11-23T19:39:03.047Z,45.05
2018-11-23T19:41:37.405Z,42.73
2018-11-23T19:44:11.794Z,42.27
2018-11-23T19:46:46.329Z,45.65
2018-11-23T19:49:20.717Z,44.77
2018-11-23T19:51:54.951Z,48.10
2018-11-23T19:54:30.105Z,44.10
2018-11-23T19:57:04.749Z,45.17
2018-11-23T19:59:39.034Z,41.65
2018-11-23T20:02:13.329Z,42.60
2018-11-23T20:04:47.697Z,39.83
2018-11-23T20:07:22.215Z,39.90
2018-11-23T20:09:56.502Z,35.68
2018-11-23T20:12:31.644Z,40.20
2018-11-23T20:15:14.990Z,38.28
2018-11-23T20:17:50.767Z,39.90
2018-11-23T20:20:31.980Z,36.68
2018-11-23T20:23:06.473Z,40.10
2018-11-23T20:25:40.819Z,38.05
2018-11-23T20:28:15.233Z,38.05
2018-11-23T20:30:49.653Z,40.10
2018-11-23T20:33:25.759Z,34.92
2018-11-23T20:36:01.009Z,38.15
2018-11-23T20:38:35.480Z,39.92
2018-11-23T20:41:10.622Z,38.55
2018-11-23T20:43:45.135Z,34.27
2018-11-23T20:46:20.143Z,35.98
2018-11-23T20:48:54.721Z,35.92
2018-11-23T20:51:29.849Z,35.73
2018-11-23T20:54:04.241Z,42.58
2018-11-23T20:56:38.489Z,35.03
2018-11-23T20:59:12.942Z,35.98
2018-11-23T21:01:47.236Z,37.80
2018-11-23T21:04:21.422Z,35.28
2018-11-23T21:06:55.845Z,38.08
2018-11-23T21:09:31.215Z,35.25
2018-11-23T21:12:05.173Z,39.40
2018-11-23T21:14:41.804Z,38.78
2018-11-23T21:17:16.555Z,38.23
2018-11-23T21:19:52.046Z,35.38
2018-11-23T21:22:26.257Z,34.45
2018-11-23T21:25:00.714Z,39.75
2018-11-23T21:27:34.979Z,38.70
2018-11-23T21:30:12.011Z,40.00
2018-11-23T21:32:46.317Z,36.25
2018-11-23T21:35:20.844Z,37.60
2018-11-23T21:37:55.136Z,39.27
2018-11-23T21:40:29.510Z,39.38
2018-11-23T21:43:04.069Z,35.98
2018-11-23T21:45:38.417Z,36.60
2018-11-23T21:48:13.854Z,35.00
2018-11-23T21:50:48.363Z,35.88
2018-11-23T21:53:22.943Z,38.05
2018-11-23T21:55:57.332Z,37.38
2018-11-23T21:58:31.960Z,37.70
2018-11-23T22:01:06.238Z,34.78
2018-11-23T22:03:40.577Z,38.25
2018-11-23T22:06:14.905Z,36.98
2018-11-23T22:08:49.452Z,37.98
2018-11-23T22:11:23.882Z,38.53
2018-11-23T22:13:58.671Z,34.15
2018-11-23T22:16:33.039Z,40.40
2018-11-23T22:19:07.286Z,35.30
2018-11-23T22:21:41.649Z,38.42
2018-11-23T22:24:16.141Z,36.53
2018-11-23T22:26:50.646Z,33.40
2018-11-23T22:29:24.829Z,37.95
2018-11-23T22:31:59.081Z,37.03
2018-11-23T22:34:33.376Z,31.02
2018-11-23T22:37:07.665Z,38.63
2018-11-23T22:39:43.815Z,34.92
2018-11-23T22:42:22.404Z,35.85
2018-11-23T22:45:00.585Z,36.45
2018-11-23T22:47:35.452Z,36.95
2018-11-23T22:50:12.233Z,37.25
2018-11-23T22:52:47.688Z,36.33
2018-11-23T22:55:20.753Z,35.03
2018-11-23T22:57:55.189Z,37.55
2018-11-23T23:00:36.325Z,40.48
2018-11-23T23:03:10.771Z,36.50
2018-11-23T23:05:45.218Z,36.23
2018-11-23T23:08:19.714Z,36.42
2018-11-23T23:10:54.143Z,38.73
2018-11-23T23:13:28.568Z,37.67
2018-11-23T23:16:03.409Z,37.93
2018-11-23T23:18:38.133Z,35.05
2018-11-23T23:21:12.574Z,35.83
2018-11-23T23:23:47.080Z,35.50
2018-11-23T23:26:21.299Z,41.13
2018-11-23T23:28:55.619Z,38.92
2018-11-23T23:31:30.028Z,33.95
2018-11-23T23:34:04.378Z,34.30
2018-11-23T23:36:38.874Z,36.30
2018-11-23T23:39:14.819Z,38.23
2018-11-23T23:41:49.181Z,40.58
2018-11-23T23:44:24.005Z,40.50
2018-11-23T23:46:58.497Z,36.53
2018-11-23T23:49:32.729Z,37.80
2018-11-23T23:52:08.361Z,36.48
2018-11-23T23:54:42.687Z,35.15
2018-11-23T23:57:17.040Z,35.60
2018-11-23T23:59:52.835Z,35.28
